createdAt,value
2018-05-21T00:02:18.147Z,91.30
2018-05-21T00:04:45.660Z,91.30
2018-05-21T00:07:15.320Z,91.50
2018-05-21T00:09:43.716Z,91.70
2018-05-21T00:12:11.245Z,91.70
2018-05-21T00:14:39.527Z,92.10
2018-05-21T00:17:07.884Z,92.20
2018-05-21T00:19:35.755Z,92.20
2018-05-21T00:22:04.049Z,92.40
2018-05-21T00:24:32.325Z,92.50
2018-05-21T00:26:59.854Z,92.60
2018-05-21T00:29:27.439Z,92.60
2018-05-21T00:31:55.043Z,92.90
2018-05-21T00:34:22.569Z,92.90
2018-05-21T00:36:50.108Z,92.90
2018-05-21T00:39:17.690Z,93.00
2018-05-21T00:41:45.207Z,93.10
2018-05-21T00:44:13.657Z,93.40
2018-05-21T00:46:41.591Z,93.70
2018-05-21T00:49:09.125Z,93.70
2018-05-21T00:51:37.410Z,94.10
2018-05-21T00:54:05.755Z,94.30
2018-05-21T00:56:33.281Z,94.20
2018-05-21T00:59:00.800Z,94.70
2018-05-21T01:01:29.115Z,95.00
2018-05-21T01:03:56.651Z,95.00
2018-05-21T01:06:24.171Z,95.00
2018-05-21T01:08:51.760Z,95.30
2018-05-21T01:11:20.062Z,95.80
2018-05-21T01:13:47.584Z,95.90
2018-05-21T01:16:16.450Z,96.00
2018-05-21T01:18:43.971Z,96.40
2018-05-21T01:21:12.014Z,96.00
2018-05-21T01:23:40.318Z,96.70
2018-05-21T01:26:07.835Z,96.70
2018-05-21T01:28:36.139Z,97.20
2018-05-21T01:31:04.020Z,97.20
2018-05-21T01:33:31.543Z,97.40
2018-05-21T01:35:59.832Z,97.50
2018-05-21T01:38:27.741Z,97.50
2018-05-21T01:40:55.305Z,97.90
2018-05-21T01:43:22.853Z,97.70
2018-05-21T01:45:50.410Z,98.40
2018-05-21T01:48:17.932Z,98.00
2018-05-21T01:50:45.462Z,98.50
2018-05-21T01:53:25.059Z,98.90
2018-05-21T01:59:05.020Z,98.90
2018-05-21T02:01:32.549Z,99.10
2018-05-21T02:04:00.067Z,99.90
2018-05-21T02:06:27.617Z,99.90
2018-05-21T02:08:55.187Z,99.90
2018-05-21T02:11:22.752Z,99.90
2018-05-21T02:13:50.679Z,99.90
2018-05-21T02:16:18.198Z,99.90
2018-05-21T02:18:45.715Z,99.90
2018-05-21T02:21:15.268Z,99.90
2018-05-21T02:23:42.843Z,99.90
2018-05-21T02:26:10.364Z,99.90
2018-05-21T02:28:37.919Z,99.90
2018-05-21T02:31:05.475Z,99.90
2018-05-21T02:33:33.009Z,99.90
2018-05-21T02:36:01.190Z,99.90
2018-05-21T02:38:28.750Z,99.90
2018-05-21T02:40:56.293Z,99.90
2018-05-21T02:43:23.986Z,99.90
2018-05-21T02:45:51.529Z,99.90
2018-05-21T02:48:19.066Z,99.90
2018-05-21T02:50:46.619Z,99.90
2018-05-21T02:53:24.545Z,99.90
2018-05-21T02:59:35.949Z,99.90
2018-05-21T03:02:03.478Z,99.90
2018-05-21T03:04:31.016Z,99.90
2018-05-21T03:06:59.347Z,99.90
2018-05-21T03:09:26.879Z,99.90
2018-05-21T03:11:54.409Z,99.90
2018-05-21T03:14:21.959Z,99.90
2018-05-21T03:16:49.492Z,99.90
2018-05-21T03:19:17.026Z,99.90
2018-05-21T03:21:44.922Z,99.90
2018-05-21T03:24:12.454Z,99.90
2018-05-21T03:26:39.965Z,99.90
2018-05-21T03:29:08.286Z,99.90
2018-05-21T03:31:35.806Z,99.90
2018-05-21T03:34:03.327Z,99.90
2018-05-21T03:36:30.891Z,99.90
2018-05-21T03:38:58.435Z,99.90
2018-05-21T03:41:25.946Z,99.90
2018-05-21T03:43:54.044Z,99.90
2018-05-21T03:46:21.583Z,99.90
2018-05-21T03:48:49.182Z,99.90
2018-05-21T03:51:17.504Z,99.90
2018-05-21T03:53:45.019Z,99.90
2018-05-21T03:56:12.535Z,99.90
2018-05-21T03:58:51.901Z,99.90
2018-05-21T04:01:31.198Z,99.90
2018-05-21T04:03:58.798Z,99.90
2018-05-21T04:06:26.343Z,99.90
2018-05-21T04:08:54.639Z,99.90
2018-05-21T04:11:22.223Z,99.90
2018-05-21T04:13:49.738Z,99.90
2018-05-21T04:16:17.267Z,99.90
2018-05-21T04:18:44.883Z,99.90
2018-05-21T04:21:14.031Z,99.90
2018-05-21T04:23:42.450Z,99.90
2018-05-21T04:26:10.403Z,99.90
2018-05-21T04:28:37.932Z,99.90
2018-05-21T04:31:05.495Z,99.90
2018-05-21T04:33:33.048Z,99.90
2018-05-21T04:36:01.355Z,99.90
2018-05-21T04:38:28.913Z,99.90
2018-05-21T04:40:56.474Z,99.90
2018-05-21T04:43:23.986Z,99.90
2018-05-21T04:45:51.517Z,99.90
2018-05-21T04:48:19.151Z,99.90
2018-05-21T04:50:46.688Z,99.90
2018-05-21T04:53:15.487Z,99.90
2018-05-21T04:55:43.053Z,99.90
2018-05-21T04:58:10.585Z,99.90
2018-05-21T05:00:38.222Z,99.90
2018-05-21T05:03:05.779Z,99.90
2018-05-21T05:05:33.302Z,99.90
2018-05-21T05:08:00.823Z,99.90
2018-05-21T05:10:29.107Z,99.90
2018-05-21T05:12:56.630Z,99.90
2018-05-21T05:15:24.152Z,99.90
2018-05-21T05:17:51.699Z,99.90
2018-05-21T05:20:19.333Z,99.90
2018-05-21T05:22:46.887Z,99.90
2018-05-21T05:25:16.727Z,99.90
2018-05-21T05:27:44.286Z,99.90
2018-05-21T05:30:11.825Z,99.90
2018-05-21T05:32:39.536Z,99.90
2018-05-21T05:35:07.059Z,99.90
2018-05-21T05:37:34.581Z,99.90
2018-05-21T05:40:02.141Z,99.90
2018-05-21T05:42:30.447Z,99.90
2018-05-21T05:44:57.969Z,99.90
2018-05-21T05:47:25.556Z,99.90
2018-05-21T05:49:53.096Z,99.90
2018-05-21T05:52:21.378Z,98.80
2018-05-21T05:54:49.380Z,96.50
2018-05-21T05:57:16.927Z,93.40
2018-05-21T05:59:44.455Z,90.10
2018-05-21T06:02:12.009Z,83.50
2018-05-21T06:04:39.627Z,77.80
2018-05-21T06:07:07.150Z,71.20
2018-05-21T06:09:34.698Z,66.00
2018-05-21T06:12:02.984Z,57.40
2018-05-21T06:14:31.319Z,55.90
2018-05-21T06:16:59.572Z,55.90
2018-05-21T06:19:27.142Z,55.00
2018-05-21T06:21:55.551Z,52.50
2018-05-21T06:24:23.244Z,52.50
2018-05-21T06:26:51.193Z,51.40
2018-05-21T06:29:19.494Z,48.20
2018-05-21T06:31:47.073Z,48.10
2018-05-21T06:34:16.605Z,46.10
2018-05-21T06:36:44.107Z,46.00
2018-05-21T06:39:12.107Z,46.80
2018-05-21T06:41:39.631Z,46.40
2018-05-21T06:44:07.935Z,42.00
2018-05-21T06:46:35.516Z,41.90
2018-05-21T06:49:03.178Z,41.80
2018-05-21T06:51:30.797Z,42.00
2018-05-21T06:53:58.429Z,41.40
2018-05-21T06:56:25.959Z,40.40
2018-05-21T06:58:53.671Z,40.00
2018-05-21T07:01:21.444Z,39.20
2018-05-21T07:03:48.963Z,37.70
2018-05-21T07:06:16.510Z,37.50
2018-05-21T07:08:44.140Z,36.70
2018-05-21T07:11:11.667Z,36.70
2018-05-21T07:13:39.971Z,35.10
2018-05-21T07:16:07.548Z,35.70
2018-05-21T07:18:35.091Z,35.20
2018-05-21T07:21:02.694Z,35.20
2018-05-21T07:23:30.608Z,35.40
2018-05-21T07:25:58.207Z,36.20
2018-05-21T07:28:26.228Z,34.90
2018-05-21T07:30:53.961Z,33.00
2018-05-21T07:33:21.537Z,33.50
2018-05-21T07:35:49.815Z,32.50
2018-05-21T07:38:18.157Z,31.30
2018-05-21T07:40:45.688Z,31.30
2018-05-21T07:43:14.623Z,31.10
2018-05-21T07:45:42.759Z,30.10
2018-05-21T07:48:10.267Z,29.80
2018-05-21T07:50:37.780Z,29.80
2018-05-21T07:53:05.383Z,28.90
2018-05-21T07:55:32.941Z,28.70
2018-05-21T07:58:00.523Z,28.10
2018-05-21T08:00:28.071Z,29.10
2018-05-21T08:02:55.719Z,29.10
2018-05-21T08:05:23.429Z,28.30
2018-05-21T08:07:51.351Z,29.60
2018-05-21T08:10:19.439Z,28.70
2018-05-21T08:12:47.103Z,28.30
2018-05-21T08:15:17.266Z,26.50
2018-05-21T08:17:45.007Z,26.50
2018-05-21T08:20:13.614Z,27.20
2018-05-21T08:22:42.003Z,26.80
2018-05-21T08:25:09.609Z,26.80
2018-05-21T08:27:37.164Z,26.00
2018-05-21T08:30:05.837Z,25.80
2018-05-21T08:32:34.261Z,25.10
2018-05-21T08:35:01.898Z,25.10
2018-05-21T08:37:29.475Z,26.10
2018-05-21T08:39:57.029Z,25.70
2018-05-21T08:42:24.575Z,25.70
2018-05-21T08:44:52.131Z,24.40
2018-05-21T08:47:19.663Z,24.10
2018-05-21T08:49:47.939Z,24.30
2018-05-21T08:52:16.552Z,24.30
2018-05-21T08:54:44.018Z,23.50
2018-05-21T08:57:11.533Z,23.00
2018-05-21T08:59:39.083Z,22.40
2018-05-21T09:02:06.616Z,22.50
2018-05-21T09:04:34.134Z,22.00
2018-05-21T09:07:01.736Z,22.20
2018-05-21T09:09:29.265Z,22.00
2018-05-21T09:11:56.779Z,21.50
2018-05-21T09:14:25.620Z,22.20
2018-05-21T09:16:53.152Z,22.10
2018-05-21T09:19:20.675Z,23.00
2018-05-21T09:21:48.223Z,23.10
2018-05-21T09:24:16.392Z,22.70
2018-05-21T09:26:43.971Z,23.30
2018-05-21T09:29:12.311Z,24.20
2018-05-21T09:31:40.327Z,24.10
2018-05-21T09:34:07.965Z,23.40
2018-05-21T09:36:36.401Z,23.30
2018-05-21T09:39:03.998Z,23.30
2018-05-21T09:41:32.306Z,24.20
2018-05-21T09:43:59.858Z,23.70
2018-05-21T09:46:27.373Z,25.20
2018-05-21T09:48:54.973Z,24.80
2018-05-21T09:51:22.527Z,24.10
2018-05-21T09:53:50.059Z,23.60
2018-05-21T09:56:17.570Z,23.50
2018-05-21T09:58:46.084Z,23.60
2018-05-21T10:01:25.828Z,25.10
2018-05-21T10:18:02.159Z,33.90
2018-05-21T10:20:29.694Z,33.80
2018-05-21T10:22:57.251Z,36.00
2018-05-21T10:25:24.843Z,35.80
2018-05-21T10:27:52.434Z,38.70
2018-05-21T10:30:19.927Z,38.10
2018-05-21T10:32:47.952Z,38.20
2018-05-21T10:35:16.438Z,39.60
2018-05-21T10:37:44.120Z,40.60
2018-05-21T10:40:12.400Z,40.60
2018-05-21T10:42:39.987Z,42.40
2018-05-21T10:45:08.276Z,41.20
2018-05-21T10:47:35.814Z,41.20
2018-05-21T10:50:03.348Z,38.00
2018-05-21T10:52:33.112Z,40.00
2018-05-21T10:55:02.048Z,43.30
2018-05-21T10:57:29.638Z,43.30
2018-05-21T10:59:57.099Z,44.70
2018-05-21T11:02:25.472Z,44.30
2018-05-21T11:04:53.041Z,44.30
2018-05-21T11:07:21.346Z,43.30
2018-05-21T11:09:48.887Z,43.30
2018-05-21T11:12:16.446Z,42.70
2018-05-21T11:14:44.025Z,43.90
2018-05-21T11:17:11.585Z,44.90
2018-05-21T11:19:39.108Z,44.70
2018-05-21T11:22:07.457Z,44.60
2018-05-21T11:24:36.115Z,44.60
2018-05-21T11:27:03.663Z,45.20
2018-05-21T11:29:31.171Z,43.50
2018-05-21T11:31:58.831Z,46.00
2018-05-21T11:34:26.489Z,48.10
2018-05-21T11:36:54.016Z,45.30
2018-05-21T11:39:21.567Z,42.80
2018-05-21T11:41:49.088Z,43.50
2018-05-21T11:44:17.396Z,43.30
2018-05-21T11:46:45.125Z,43.30
2018-05-21T11:49:14.334Z,43.50
2018-05-21T11:51:41.896Z,43.50
2018-05-21T11:54:09.477Z,45.50
2018-05-21T11:56:37.008Z,45.80
2018-05-21T11:59:04.539Z,45.80
2018-05-21T12:01:32.107Z,43.60
2018-05-21T12:04:00.418Z,43.10
2018-05-21T12:06:28.703Z,43.00
2018-05-21T12:08:56.299Z,41.70
2018-05-21T12:11:23.858Z,43.20
2018-05-21T12:13:51.402Z,42.50
2018-05-21T12:16:18.979Z,43.50
2018-05-21T12:18:46.604Z,46.00
2018-05-21T12:21:16.747Z,44.40
2018-05-21T12:23:44.303Z,45.50
2018-05-21T12:26:11.831Z,43.90
2018-05-21T12:28:39.445Z,45.00
2018-05-21T12:31:07.230Z,45.30
2018-05-21T12:33:34.748Z,45.00
2018-05-21T12:36:02.975Z,45.60
2018-05-21T12:38:30.567Z,43.90
2018-05-21T12:40:58.087Z,44.90
2018-05-21T12:43:25.761Z,44.60
2018-05-21T12:45:53.319Z,44.10
2018-05-21T12:48:20.841Z,44.20
2018-05-21T12:50:48.355Z,45.00
2018-05-21T12:53:16.451Z,45.10
2018-05-21T12:55:43.999Z,44.90
2018-05-21T12:58:11.515Z,44.30
2018-05-21T13:00:39.073Z,45.20
2018-05-21T13:03:07.370Z,45.30
2018-05-21T13:05:34.908Z,45.30
2018-05-21T13:08:02.464Z,46.60
2018-05-21T13:10:30.744Z,44.90
2018-05-21T13:12:58.274Z,44.80
2018-05-21T13:15:26.131Z,43.50
2018-05-21T13:17:53.664Z,44.60
2018-05-21T13:20:21.199Z,45.50
2018-05-21T13:22:49.554Z,44.20
2018-05-21T13:25:17.080Z,44.10
2018-05-21T13:27:44.609Z,43.20
2018-05-21T13:30:12.191Z,43.60
2018-05-21T13:32:39.725Z,44.10
2018-05-21T13:35:07.369Z,42.40
2018-05-21T13:37:35.551Z,43.80
2018-05-21T13:40:03.164Z,43.50
2018-05-21T13:42:31.454Z,42.30
2018-05-21T13:44:59.020Z,42.30
2018-05-21T13:47:27.363Z,42.80
2018-05-21T13:49:55.687Z,42.80
2018-05-21T13:52:23.374Z,42.80
2018-05-21T13:54:50.844Z,41.70
2018-05-21T13:57:18.389Z,41.10
2018-05-21T13:59:45.959Z,41.10
2018-05-21T14:02:15.353Z,43.40
2018-05-21T14:04:42.886Z,43.30
2018-05-21T14:07:10.459Z,43.40
2018-05-21T14:09:37.979Z,41.70
2018-05-21T14:12:06.284Z,42.20
2018-05-21T14:14:33.925Z,42.20
2018-05-21T14:17:01.571Z,42.70
2018-05-21T14:19:29.866Z,41.50
2018-05-21T14:21:57.668Z,41.50
2018-05-21T14:24:25.189Z,42.20
2018-05-21T14:26:53.213Z,41.10
2018-05-21T14:29:21.592Z,41.70
2018-05-21T14:31:49.148Z,41.60
2018-05-21T14:34:16.682Z,42.50
2018-05-21T14:36:44.261Z,42.70
2018-05-21T14:39:12.099Z,40.00
2018-05-21T14:41:39.664Z,42.10
2018-05-21T14:44:07.583Z,42.10
2018-05-21T14:46:35.911Z,41.10
2018-05-21T14:49:03.460Z,41.00
2018-05-21T14:51:31.200Z,40.80
2018-05-21T14:53:58.750Z,40.00
2018-05-21T14:56:27.089Z,40.70
2018-05-21T14:58:54.656Z,40.70
2018-05-21T15:01:22.184Z,40.00
2018-05-21T15:03:49.715Z,38.20
2018-05-21T15:06:17.342Z,39.40
2018-05-21T15:08:44.897Z,38.80
2018-05-21T15:11:12.427Z,38.80
2018-05-21T15:13:40.003Z,38.60
2018-05-21T15:16:07.717Z,37.70
2018-05-21T15:18:35.217Z,39.30
2018-05-21T15:21:02.765Z,37.70
2018-05-21T15:23:30.299Z,36.90
2018-05-21T15:25:57.814Z,37.40
2018-05-21T15:28:25.507Z,36.20
2018-05-21T15:30:53.067Z,36.80
2018-05-21T15:33:21.458Z,39.20
2018-05-21T15:35:49.039Z,39.10
2018-05-21T15:38:16.580Z,39.70
2018-05-21T15:40:44.538Z,39.90
2018-05-21T15:43:12.182Z,40.10
2018-05-21T15:45:40.498Z,42.20
2018-05-21T15:48:08.022Z,42.20
2018-05-21T15:50:36.757Z,44.50
2018-05-21T15:53:04.314Z,44.40
2018-05-21T15:55:31.866Z,44.90
2018-05-21T15:57:59.436Z,45.40
2018-05-21T16:00:26.963Z,46.80
2018-05-21T16:02:54.639Z,47.90
2018-05-21T16:05:22.364Z,48.90
2018-05-21T16:07:50.767Z,55.60
2018-05-21T16:10:18.320Z,55.60
2018-05-21T16:12:45.929Z,58.40
2018-05-21T16:15:14.590Z,64.20
2018-05-21T16:17:42.119Z,65.70
2018-05-21T16:20:10.436Z,72.60
2018-05-21T16:22:38.034Z,72.60
2018-05-21T16:25:06.367Z,84.10
2018-05-21T16:27:33.917Z,84.00
2018-05-21T16:30:01.463Z,88.10
2018-05-21T16:32:28.988Z,85.00
2018-05-21T16:34:56.821Z,91.10
2018-05-21T16:37:24.337Z,91.10
2018-05-21T16:39:52.638Z,94.80
2018-05-21T16:42:20.328Z,94.70
2018-05-21T16:44:47.858Z,93.20
2018-05-21T16:47:16.410Z,94.00
2018-05-21T16:49:43.950Z,92.50
2018-05-21T16:52:12.260Z,94.00
2018-05-21T16:54:39.792Z,94.00
2018-05-21T16:57:08.470Z,91.80
2018-05-21T16:59:36.752Z,92.60
2018-05-21T17:02:04.268Z,92.60
2018-05-21T17:04:31.838Z,92.60
2018-05-21T17:06:59.396Z,94.00
2018-05-21T17:09:26.924Z,94.50
2018-05-21T17:11:54.467Z,96.10
2018-05-21T17:14:22.004Z,96.60
2018-05-21T17:16:50.339Z,97.60
2018-05-21T17:19:17.952Z,97.60
2018-05-21T17:21:45.483Z,98.10
2018-05-21T17:24:14.651Z,98.80
2018-05-21T17:26:42.209Z,98.70
2018-05-21T17:29:09.746Z,99.10
2018-05-21T17:31:37.259Z,99.90
2018-05-21T17:34:04.830Z,99.90
2018-05-21T17:36:33.111Z,98.30
2018-05-21T17:39:01.447Z,98.50
2018-05-21T17:41:30.531Z,99.90
2018-05-21T17:43:58.383Z,99.70
2018-05-21T17:46:25.998Z,99.20
2018-05-21T17:48:53.567Z,97.30
2018-05-21T17:51:21.985Z,98.00
2018-05-21T17:53:51.139Z,96.60
2018-05-21T17:56:19.572Z,95.40
2018-05-21T17:58:47.859Z,95.00
2018-05-21T18:01:15.452Z,95.00
2018-05-21T18:03:44.131Z,95.10
2018-05-21T18:06:11.689Z,95.10
2018-05-21T18:08:39.208Z,95.70
2018-05-21T18:11:06.776Z,95.90
2018-05-21T18:13:34.461Z,96.50
2018-05-21T18:16:02.050Z,97.00
2018-05-21T18:18:30.355Z,96.60
2018-05-21T18:20:57.944Z,96.60
2018-05-21T18:23:25.835Z,96.80
2018-05-21T18:25:54.502Z,97.30
2018-05-21T18:28:22.021Z,97.20
2018-05-21T18:30:49.563Z,96.40
2018-05-21T18:33:17.171Z,97.00
2018-05-21T18:35:44.833Z,97.60
2018-05-21T18:38:12.426Z,98.20
2018-05-21T18:40:40.764Z,99.20
2018-05-21T18:43:08.290Z,99.20
2018-05-21T18:45:36.285Z,99.90
2018-05-21T18:48:04.468Z,99.90
2018-05-21T18:50:32.003Z,99.90
2018-05-21T18:52:59.579Z,99.90
2018-05-21T18:55:27.162Z,99.90
2018-05-21T18:57:55.901Z,99.90
2018-05-21T19:00:23.483Z,99.90
2018-05-21T19:02:51.170Z,99.90
2018-05-21T19:05:18.706Z,99.90
2018-05-21T19:07:46.240Z,99.90
2018-05-21T19:10:25.549Z,99.90
2018-05-21T19:22:33.207Z,99.90
2018-05-21T19:25:01.491Z,99.90
2018-05-21T19:27:29.034Z,99.90
2018-05-21T19:29:57.948Z,99.90
2018-05-21T19:32:25.495Z,99.90
2018-05-21T19:34:53.047Z,99.90
2018-05-21T19:37:20.623Z,99.90
2018-05-21T19:39:48.171Z,99.90
2018-05-21T19:42:17.164Z,99.90
2018-05-21T19:44:44.738Z,99.90
2018-05-21T19:47:12.794Z,99.90
2018-05-21T19:49:40.329Z,99.90
2018-05-21T19:52:07.991Z,99.90
2018-05-21T19:54:35.560Z,99.90
2018-05-21T19:57:03.110Z,99.90
2018-05-21T19:59:30.703Z,99.90
2018-05-21T20:01:58.243Z,99.90
2018-05-21T20:04:26.531Z,99.90
2018-05-21T20:06:54.135Z,99.90
2018-05-21T20:09:21.658Z,99.90
2018-05-21T20:11:49.187Z,99.90
2018-05-21T20:14:17.745Z,99.90
2018-05-21T20:16:45.282Z,99.90
2018-05-21T20:19:24.633Z,99.90
2018-05-21T20:21:52.913Z,99.90
2018-05-21T20:24:20.448Z,99.90
2018-05-21T20:26:48.003Z,99.90
2018-05-21T20:29:17.245Z,99.90
2018-05-21T20:31:44.798Z,99.90
2018-05-21T20:34:12.876Z,99.90
2018-05-21T20:36:41.179Z,99.90
2018-05-21T20:39:08.738Z,99.90
2018-05-21T20:41:36.316Z,99.90
2018-05-21T20:44:04.002Z,99.90
2018-05-21T20:46:31.555Z,99.90
2018-05-21T20:48:59.796Z,99.90
2018-05-21T20:51:27.330Z,99.90
2018-05-21T20:53:55.746Z,99.90
2018-05-21T20:56:24.071Z,99.90
2018-05-21T20:58:51.610Z,99.90
2018-05-21T21:01:19.221Z,99.90
2018-05-21T21:03:46.706Z,99.90
2018-05-21T21:06:15.542Z,99.90
2018-05-21T21:08:43.159Z,99.90
2018-05-21T21:11:11.535Z,99.90
2018-05-21T21:13:39.059Z,99.90
2018-05-21T21:16:07.376Z,99.90
2018-05-21T21:18:35.012Z,99.90
2018-05-21T21:21:02.585Z,99.90
2018-05-21T21:23:30.157Z,99.90
2018-05-21T21:25:57.657Z,99.90
2018-05-21T21:28:25.959Z,99.90
2018-05-21T21:30:54.243Z,99.90
2018-05-21T21:33:21.860Z,99.90
2018-05-21T21:35:50.173Z,99.90
2018-05-21T21:38:18.459Z,99.90
2018-05-21T21:40:46.193Z,99.90
2018-05-21T21:43:26.714Z,99.90
2018-05-21T21:48:48.838Z,99.90
2018-05-21T21:51:17.702Z,99.90
2018-05-21T21:53:45.223Z,99.90
2018-05-21T21:56:13.778Z,99.90
2018-05-21T21:58:41.440Z,99.90
2018-05-21T22:01:09.023Z,99.90
2018-05-21T22:03:36.574Z,99.90
2018-05-21T22:06:04.107Z,99.90
2018-05-21T22:08:31.645Z,99.90
2018-05-21T22:10:59.283Z,99.90
2018-05-21T22:13:26.807Z,99.90
2018-05-21T22:15:54.334Z,99.90
2018-05-21T22:18:22.196Z,99.90
2018-05-21T22:20:49.753Z,99.90
2018-05-21T22:23:17.347Z,99.90
2018-05-21T22:25:44.935Z,99.90
2018-05-21T22:28:12.459Z,99.90
2018-05-21T22:30:39.974Z,99.90
2018-05-21T22:33:07.865Z,99.90
2018-05-21T22:35:35.818Z,99.90
2018-05-21T22:38:04.159Z,99.90
2018-05-21T22:40:32.305Z,99.90
2018-05-21T22:42:59.824Z,99.90
2018-05-21T22:45:28.104Z,99.90
2018-05-21T22:47:56.414Z,99.90
2018-05-21T22:50:23.942Z,99.90
2018-05-21T22:52:51.778Z,99.90
2018-05-21T22:55:19.322Z,99.90
2018-05-21T22:57:46.848Z,99.90
2018-05-21T23:00:16.446Z,99.90
2018-05-21T23:02:44.329Z,99.90
2018-05-21T23:05:11.855Z,99.90
2018-05-21T23:07:39.388Z,99.90
2018-05-21T23:10:06.973Z,99.90
2018-05-21T23:12:34.509Z,99.90
2018-05-21T23:15:02.037Z,99.90
2018-05-21T23:17:29.591Z,99.90
2018-05-21T23:19:57.135Z,99.90
2018-05-21T23:22:37.070Z,99.90
2018-05-21T23:25:05.378Z,99.90
2018-05-21T23:27:34.031Z,99.90
2018-05-21T23:30:01.580Z,99.90
2018-05-21T23:32:29.144Z,99.90
2018-05-21T23:34:56.722Z,99.90
2018-05-21T23:37:24.259Z,99.90
2018-05-21T23:39:51.790Z,99.90
2018-05-21T23:42:19.343Z,99.90
2018-05-21T23:44:47.207Z,99.90
2018-05-21T23:47:17.168Z,99.90
2018-05-21T23:49:44.682Z,99.90
2018-05-21T23:52:12.222Z,99.90
2018-05-21T23:54:40.314Z,99.90
2018-05-21T23:57:07.835Z,99.90
2018-05-21T23:59:36.154Z,99.90
